sensor_id;sensor_type;location;lat;lon;timestamp;temperature;humidity
75985;DHT22;65033;44.660;37.758;2023-07-29T00:00:59;22.55;55.92
75985;DHT22;65033;44.660;37.758;2023-07-29T00:02:05;22.57;55.87
75985;DHT22;65033;44.660;37.758;2023-07-29T00:03:09;22.56;56.09
75985;DHT22;65033;44.660;37.758;2023-07-29T00:04:13;22.57;55.96
75985;DHT22;65033;44.660;37.758;2023-07-29T00:05:16;22.60;55.83
75985;DHT22;65033;44.660;37.758;2023-07-29T00:06:20;22.62;55.70
75985;DHT22;65033;44.660;37.758;2023-07-29T00:07:25;22.64;55.61
75985;DHT22;65033;44.660;37.758;2023-07-29T00:08:30;22.64;55.67
75985;DHT22;65033;44.660;37.758;2023-07-29T00:09:33;22.64;55.71
75985;DHT22;65033;44.660;37.758;2023-07-29T00:10:37;22.65;55.73
75985;DHT22;65033;44.660;37.758;2023-07-29T00:11:41;22.65;55.78
75985;DHT22;65033;44.660;37.758;2023-07-29T00:12:44;22.65;55.68
75985;DHT22;65033;44.660;37.758;2023-07-29T00:13:48;22.68;55.63
75985;DHT22;65033;44.660;37.758;2023-07-29T00:14:53;22.70;55.62
75985;DHT22;65033;44.660;37.758;2023-07-29T00:15:56;22.73;55.56
75985;DHT22;65033;44.660;37.758;2023-07-29T00:17:00;22.73;55.44
75985;DHT22;65033;44.660;37.758;2023-07-29T00:18:03;22.75;55.43
75985;DHT22;65033;44.660;37.758;2023-07-29T00:19:07;22.77;55.47
75985;DHT22;65033;44.660;37.758;2023-07-29T00:20:10;22.76;55.48
75985;DHT22;65033;44.660;37.758;2023-07-29T00:21:14;22.78;55.44
75985;DHT22;65033;44.660;37.758;2023-07-29T00:22:18;22.78;55.39
75985;DHT22;65033;44.660;37.758;2023-07-29T00:23:22;22.80;55.58
75985;DHT22;65033;44.660;37.758;2023-07-29T00:24:26;22.78;55.68
75985;DHT22;65033;44.660;37.758;2023-07-29T00:25:30;22.76;55.60
75985;DHT22;65033;44.660;37.758;2023-07-29T00:26:34;22.76;55.66
75985;DHT22;65033;44.660;37.758;2023-07-29T00:27:37;22.72;55.74
75985;DHT22;65033;44.660;37.758;2023-07-29T00:28:41;22.71;55.77
75985;DHT22;65033;44.660;37.758;2023-07-29T00:29:45;22.69;55.87
75985;DHT22;65033;44.660;37.758;2023-07-29T00:30:49;22.69;55.71
75985;DHT22;65033;44.660;37.758;2023-07-29T00:31:56;22.70;55.84
75985;DHT22;65033;44.660;37.758;2023-07-29T00:32:59;22.70;55.80
75985;DHT22;65033;44.660;37.758;2023-07-29T00:34:03;22.70;55.84
75985;DHT22;65033;44.660;37.758;2023-07-29T00:35:07;22.67;55.94
75985;DHT22;65033;44.660;37.758;2023-07-29T00:36:12;22.64;56.01
75985;DHT22;65033;44.660;37.758;2023-07-29T00:37:16;22.65;55.79
75985;DHT22;65033;44.660;37.758;2023-07-29T00:38:22;22.67;55.77
75985;DHT22;65033;44.660;37.758;2023-07-29T00:39:26;22.69;55.68
75985;DHT22;65033;44.660;37.758;2023-07-29T00:40:31;22.71;55.52
75985;DHT22;65033;44.660;37.758;2023-07-29T00:41:38;22.71;55.61
75985;DHT22;65033;44.660;37.758;2023-07-29T00:42:42;22.69;55.65
75985;DHT22;65033;44.660;37.758;2023-07-29T00:43:46;22.69;55.90
75985;DHT22;65033;44.660;37.758;2023-07-29T00:44:49;22.66;56.00
75985;DHT22;65033;44.660;37.758;2023-07-29T00:45:53;22.62;56.13
75985;DHT22;65033;44.660;37.758;2023-07-29T00:46:56;22.60;56.36
75985;DHT22;65033;44.660;37.758;2023-07-29T00:48:01;22.56;56.39
75985;DHT22;65033;44.660;37.758;2023-07-29T00:49:05;22.54;56.60
75985;DHT22;65033;44.660;37.758;2023-07-29T00:50:11;22.51;56.66
75985;DHT22;65033;44.660;37.758;2023-07-29T00:51:15;22.50;56.80
75985;DHT22;65033;44.660;37.758;2023-07-29T00:52:18;22.48;56.87
75985;DHT22;65033;44.660;37.758;2023-07-29T00:53:23;22.43;57.06
75985;DHT22;65033;44.660;37.758;2023-07-29T00:54:27;22.40;57.06
75985;DHT22;65033;44.660;37.758;2023-07-29T00:55:31;22.43;56.58
75985;DHT22;65033;44.660;37.758;2023-07-29T00:56:35;22.42;56.96
75985;DHT22;65033;44.660;37.758;2023-07-29T00:57:39;22.43;57.03
75985;DHT22;65033;44.660;37.758;2023-07-29T00:58:43;22.41;57.18
75985;DHT22;65033;44.660;37.758;2023-07-29T00:59:47;22.39;57.22
75985;DHT22;65033;44.660;37.758;2023-07-29T01:00:51;22.47;57.13
75985;DHT22;65033;44.660;37.758;2023-07-29T01:01:55;22.47;56.89
75985;DHT22;65033;44.660;37.758;2023-07-29T01:03:00;22.46;57.02
75985;DHT22;65033;44.660;37.758;2023-07-29T01:04:04;22.44;57.18
75985;DHT22;65033;44.660;37.758;2023-07-29T01:05:11;22.41;57.28
75985;DHT22;65033;44.660;37.758;2023-07-29T01:06:23;22.37;57.41
75985;DHT22;65033;44.660;37.758;2023-07-29T01:07:33;22.34;57.86
75985;DHT22;65033;44.660;37.758;2023-07-29T01:08:46;22.28;57.92
75985;DHT22;65033;44.660;37.758;2023-07-29T01:09:55;22.26;57.93
75985;DHT22;65033;44.660;37.758;2023-07-29T01:11:12;22.23;58.14
75985;DHT22;65033;44.660;37.758;2023-07-29T01:12:21;22.25;57.80
75985;DHT22;65033;44.660;37.758;2023-07-29T01:13:33;22.25;58.14
75985;DHT22;65033;44.660;37.758;2023-07-29T01:14:41;22.23;58.24
75985;DHT22;65033;44.660;37.758;2023-07-29T01:15:51;22.17;58.56
75985;DHT22;65033;44.660;37.758;2023-07-29T01:17:00;22.11;58.80
75985;DHT22;65033;44.660;37.758;2023-07-29T01:18:14;22.07;59.07
75985;DHT22;65033;44.660;37.758;2023-07-29T01:19:36;21.99;59.43
75985;DHT22;65033;44.660;37.758;2023-07-29T01:20:44;21.92;59.46
75985;DHT22;65033;44.660;37.758;2023-07-29T01:21:49;21.91;59.28
75985;DHT22;65033;44.660;37.758;2023-07-29T01:22:54;21.93;59.30
75985;DHT22;65033;44.660;37.758;2023-07-29T01:23:59;21.93;59.34
75985;DHT22;65033;44.660;37.758;2023-07-29T01:25:04;21.92;59.41
75985;DHT22;65033;44.660;37.758;2023-07-29T01:26:08;21.92;59.39
75985;DHT22;65033;44.660;37.758;2023-07-29T01:27:12;21.90;59.77
75985;DHT22;65033;44.660;37.758;2023-07-29T01:28:16;21.88;59.64
75985;DHT22;65033;44.660;37.758;2023-07-29T01:29:20;21.87;59.80
75985;DHT22;65033;44.660;37.758;2023-07-29T01:30:28;21.84;60.10
75985;DHT22;65033;44.660;37.758;2023-07-29T01:31:39;21.85;60.11
75985;DHT22;65033;44.660;37.758;2023-07-29T01:32:55;21.85;59.96
75985;DHT22;65033;44.660;37.758;2023-07-29T01:34:08;21.87;59.88
75985;DHT22;65033;44.660;37.758;2023-07-29T01:35:19;21.89;59.87
75985;DHT22;65033;44.660;37.758;2023-07-29T01:36:28;21.92;59.65
75985;DHT22;65033;44.660;37.758;2023-07-29T01:37:33;21.92;59.54
75985;DHT22;65033;44.660;37.758;2023-07-29T01:38:38;21.91;59.87
75985;DHT22;65033;44.660;37.758;2023-07-29T01:39:45;21.88;59.90
75985;DHT22;65033;44.660;37.758;2023-07-29T01:40:50;21.88;59.96
75985;DHT22;65033;44.660;37.758;2023-07-29T01:41:56;21.85;60.00
75985;DHT22;65033;44.660;37.758;2023-07-29T01:43:00;21.88;59.76
75985;DHT22;65033;44.660;37.758;2023-07-29T01:44:04;21.85;59.79
75985;DHT22;65033;44.660;37.758;2023-07-29T01:45:09;21.83;60.04
75985;DHT22;65033;44.660;37.758;2023-07-29T01:46:13;21.80;60.25
75985;DHT22;65033;44.660;37.758;2023-07-29T01:47:17;21.85;59.86
75985;DHT22;65033;44.660;37.758;2023-07-29T01:48:21;21.89;59.82
75985;DHT22;65033;44.660;37.758;2023-07-29T01:49:25;21.87;59.99
75985;DHT22;65033;44.660;37.758;2023-07-29T01:50:29;21.87;60.09
75985;DHT22;65033;44.660;37.758;2023-07-29T01:51:32;21.83;60.34
75985;DHT22;65033;44.660;37.758;2023-07-29T01:52:36;21.81;60.38
75985;DHT22;65033;44.660;37.758;2023-07-29T01:53:39;21.79;60.44
75985;DHT22;65033;44.660;37.758;2023-07-29T01:54:44;21.78;60.38
75985;DHT22;65033;44.660;37.758;2023-07-29T01:55:48;21.78;60.45
75985;DHT22;65033;44.660;37.758;2023-07-29T01:56:52;21.79;60.11
75985;DHT22;65033;44.660;37.758;2023-07-29T01:57:55;21.85;60.10
75985;DHT22;65033;44.660;37.758;2023-07-29T01:59:00;21.91;59.92
75985;DHT22;65033;44.660;37.758;2023-07-29T02:00:06;21.96;59.73
75985;DHT22;65033;44.660;37.758;2023-07-29T02:01:17;22.01;59.74
75985;DHT22;65033;44.660;37.758;2023-07-29T02:02:21;21.99;59.93
75985;DHT22;65033;44.660;37.758;2023-07-29T02:03:25;21.97;59.96
75985;DHT22;65033;44.660;37.758;2023-07-29T02:04:28;21.96;60.14
75985;DHT22;65033;44.660;37.758;2023-07-29T02:05:32;21.98;60.07
75985;DHT22;65033;44.660;37.758;2023-07-29T02:06:35;21.95;60.16
75985;DHT22;65033;44.660;37.758;2023-07-29T02:07:39;21.94;60.28
75985;DHT22;65033;44.660;37.758;2023-07-29T02:08:43;21.96;60.34
75985;DHT22;65033;44.660;37.758;2023-07-29T02:09:48;22.04;60.22
75985;DHT22;65033;44.660;37.758;2023-07-29T02:10:52;22.07;60.18
75985;DHT22;65033;44.660;37.758;2023-07-29T02:11:56;22.08;60.08
75985;DHT22;65033;44.660;37.758;2023-07-29T02:13:00;22.16;60.05
75985;DHT22;65033;44.660;37.758;2023-07-29T02:14:04;22.24;59.73
75985;DHT22;65033;44.660;37.758;2023-07-29T02:15:08;22.26;59.73
75985;DHT22;65033;44.660;37.758;2023-07-29T02:16:12;22.29;59.61
75985;DHT22;65033;44.660;37.758;2023-07-29T02:17:16;22.32;59.48
75985;DHT22;65033;44.660;37.758;2023-07-29T02:18:20;22.36;59.65
75985;DHT22;65033;44.660;37.758;2023-07-29T02:19:24;22.37;59.36
75985;DHT22;65033;44.660;37.758;2023-07-29T02:20:27;22.38;59.40
75985;DHT22;65033;44.660;37.758;2023-07-29T02:21:31;22.38;59.44
75985;DHT22;65033;44.660;37.758;2023-07-29T02:22:35;22.38;59.41
75985;DHT22;65033;44.660;37.758;2023-07-29T02:23:38;22.36;59.54
75985;DHT22;65033;44.660;37.758;2023-07-29T02:24:43;22.39;59.58
75985;DHT22;65033;44.660;37.758;2023-07-29T02:25:48;22.39;59.57
75985;DHT22;65033;44.660;37.758;2023-07-29T02:26:52;22.39;59.65
75985;DHT22;65033;44.660;37.758;2023-07-29T02:27:55;22.40;59.71
75985;DHT22;65033;44.660;37.758;2023-07-29T02:28:59;22.40;59.78
75985;DHT22;65033;44.660;37.758;2023-07-29T02:30:03;22.43;59.80
75985;DHT22;65033;44.660;37.758;2023-07-29T02:31:15;22.46;59.85
75985;DHT22;65033;44.660;37.758;2023-07-29T02:32:21;22.44;59.86
75985;DHT22;65033;44.660;37.758;2023-07-29T02:33:25;22.43;59.98
75985;DHT22;65033;44.660;37.758;2023-07-29T02:34:28;22.44;59.86
75985;DHT22;65033;44.660;37.758;2023-07-29T02:35:33;22.49;59.82
75985;DHT22;65033;44.660;37.758;2023-07-29T02:36:36;22.50;59.86
75985;DHT22;65033;44.660;37.758;2023-07-29T02:37:41;22.55;59.60
75985;DHT22;65033;44.660;37.758;2023-07-29T02:38:45;22.58;59.61
75985;DHT22;65033;44.660;37.758;2023-07-29T02:39:49;22.62;59.58
75985;DHT22;65033;44.660;37.758;2023-07-29T02:40:54;22.64;59.54
75985;DHT22;65033;44.660;37.758;2023-07-29T02:41:58;22.66;59.61
75985;DHT22;65033;44.660;37.758;2023-07-29T02:43:02;22.67;59.80
75985;DHT22;65033;44.660;37.758;2023-07-29T02:44:05;22.69;59.81
75985;DHT22;65033;44.660;37.758;2023-07-29T02:45:10;22.70;59.82
75985;DHT22;65033;44.660;37.758;2023-07-29T02:46:14;22.70;59.94
75985;DHT22;65033;44.660;37.758;2023-07-29T02:47:18;22.71;60.08
75985;DHT22;65033;44.660;37.758;2023-07-29T02:48:21;22.71;60.16
75985;DHT22;65033;44.660;37.758;2023-07-29T02:49:25;22.72;60.18
75985;DHT22;65033;44.660;37.758;2023-07-29T02:50:28;22.73;60.17
75985;DHT22;65033;44.660;37.758;2023-07-29T02:51:32;22.73;60.25
75985;DHT22;65033;44.660;37.758;2023-07-29T02:52:36;22.77;60.12
75985;DHT22;65033;44.660;37.758;2023-07-29T02:53:40;22.78;60.10
75985;DHT22;65033;44.660;37.758;2023-07-29T02:54:44;22.80;60.14
75985;DHT22;65033;44.660;37.758;2023-07-29T02:55:47;22.82;60.10
75985;DHT22;65033;44.660;37.758;2023-07-29T02:56:53;22.83;60.06
75985;DHT22;65033;44.660;37.758;2023-07-29T02:57:57;22.85;59.99
75985;DHT22;65033;44.660;37.758;2023-07-29T02:59:01;22.87;59.89
75985;DHT22;65033;44.660;37.758;2023-07-29T03:00:07;22.90;59.99
75985;DHT22;65033;44.660;37.758;2023-07-29T03:01:11;22.91;59.87
75985;DHT22;65033;44.660;37.758;2023-07-29T03:02:16;22.93;59.88
75985;DHT22;65033;44.660;37.758;2023-07-29T03:03:20;22.94;59.85
75985;DHT22;65033;44.660;37.758;2023-07-29T03:04:23;22.95;59.87
75985;DHT22;65033;44.660;37.758;2023-07-29T03:05:27;22.96;59.88
75985;DHT22;65033;44.660;37.758;2023-07-29T03:06:32;22.99;59.66
75985;DHT22;65033;44.660;37.758;2023-07-29T03:07:37;23.00;59.44
75985;DHT22;65033;44.660;37.758;2023-07-29T03:08:41;23.02;59.26
75985;DHT22;65033;44.660;37.758;2023-07-29T03:09:44;23.03;59.40
75985;DHT22;65033;44.660;37.758;2023-07-29T03:10:48;23.05;59.51
75985;DHT22;65033;44.660;37.758;2023-07-29T03:11:54;23.07;59.60
75985;DHT22;65033;44.660;37.758;2023-07-29T03:12:58;23.07;59.58
75985;DHT22;65033;44.660;37.758;2023-07-29T03:14:04;23.08;59.67
75985;DHT22;65033;44.660;37.758;2023-07-29T03:15:08;23.09;59.70
75985;DHT22;65033;44.660;37.758;2023-07-29T03:16:14;23.07;59.91
75985;DHT22;65033;44.660;37.758;2023-07-29T03:17:23;23.07;59.88
75985;DHT22;65033;44.660;37.758;2023-07-29T03:18:27;23.08;59.90
75985;DHT22;65033;44.660;37.758;2023-07-29T03:19:31;23.09;59.90
75985;DHT22;65033;44.660;37.758;2023-07-29T03:20:37;23.10;59.78
75985;DHT22;65033;44.660;37.758;2023-07-29T03:21:40;23.15;59.66
75985;DHT22;65033;44.660;37.758;2023-07-29T03:22:44;23.17;59.60
75985;DHT22;65033;44.660;37.758;2023-07-29T03:23:50;23.17;59.54
75985;DHT22;65033;44.660;37.758;2023-07-29T03:24:54;23.20;59.54
75985;DHT22;65033;44.660;37.758;2023-07-29T03:25:58;23.22;59.61
75985;DHT22;65033;44.660;37.758;2023-07-29T03:27:04;23.21;59.60
75985;DHT22;65033;44.660;37.758;2023-07-29T03:28:08;23.23;59.57
75985;DHT22;65033;44.660;37.758;2023-07-29T03:29:12;23.23;59.85
75985;DHT22;65033;44.660;37.758;2023-07-29T03:30:19;23.24;60.04
75985;DHT22;65033;44.660;37.758;2023-07-29T03:31:22;23.24;59.82
75985;DHT22;65033;44.660;37.758;2023-07-29T03:32:26;23.25;59.86
75985;DHT22;65033;44.660;37.758;2023-07-29T03:33:30;23.26;59.79
75985;DHT22;65033;44.660;37.758;2023-07-29T03:34:33;23.27;59.16
75985;DHT22;65033;44.660;37.758;2023-07-29T03:35:37;23.32;59.19
75985;DHT22;65033;44.660;37.758;2023-07-29T03:36:40;23.34;59.32
75985;DHT22;65033;44.660;37.758;2023-07-29T03:37:44;23.34;59.33
75985;DHT22;65033;44.660;37.758;2023-07-29T03:38:47;23.35;59.38
75985;DHT22;65033;44.660;37.758;2023-07-29T03:39:51;23.38;59.41
75985;DHT22;65033;44.660;37.758;2023-07-29T03:40:55;23.39;59.19
75985;DHT22;65033;44.660;37.758;2023-07-29T03:41:59;23.41;59.37
75985;DHT22;65033;44.660;37.758;2023-07-29T03:43:04;23.42;59.43
75985;DHT22;65033;44.660;37.758;2023-07-29T03:44:07;23.42;59.51
75985;DHT22;65033;44.660;37.758;2023-07-29T03:45:11;23.42;59.63
75985;DHT22;65033;44.660;37.758;2023-07-29T03:46:15;23.42;59.38
75985;DHT22;65033;44.660;37.758;2023-07-29T03:47:23;23.44;59.41
75985;DHT22;65033;44.660;37.758;2023-07-29T03:48:28;23.45;59.43
75985;DHT22;65033;44.660;37.758;2023-07-29T03:49:31;23.49;59.29
75985;DHT22;65033;44.660;37.758;2023-07-29T03:50:36;23.50;59.35
75985;DHT22;65033;44.660;37.758;2023-07-29T03:51:39;23.53;58.93
75985;DHT22;65033;44.660;37.758;2023-07-29T03:52:43;23.62;58.62
75985;DHT22;65033;44.660;37.758;2023-07-29T03:53:46;23.61;58.71
75985;DHT22;65033;44.660;37.758;2023-07-29T03:54:50;23.62;58.65
75985;DHT22;65033;44.660;37.758;2023-07-29T03:55:54;23.64;58.45
75985;DHT22;65033;44.660;37.758;2023-07-29T03:56:57;23.64;58.65
75985;DHT22;65033;44.660;37.758;2023-07-29T03:58:01;23.62;58.58
75985;DHT22;65033;44.660;37.758;2023-07-29T03:59:06;23.66;58.58
75985;DHT22;65033;44.660;37.758;2023-07-29T04:00:10;23.67;58.48
75985;DHT22;65033;44.660;37.758;2023-07-29T04:01:17;23.70;58.22
75985;DHT22;65033;44.660;37.758;2023-07-29T04:02:22;23.72;58.29
75985;DHT22;65033;44.660;37.758;2023-07-29T04:03:25;23.70;58.37
75985;DHT22;65033;44.660;37.758;2023-07-29T04:04:30;23.73;58.42
75985;DHT22;65033;44.660;37.758;2023-07-29T04:05:34;23.73;58.51
75985;DHT22;65033;44.660;37.758;2023-07-29T04:06:41;23.75;58.47
75985;DHT22;65033;44.660;37.758;2023-07-29T04:07:44;23.74;58.03
75985;DHT22;65033;44.660;37.758;2023-07-29T04:08:48;23.73;58.13
75985;DHT22;65033;44.660;37.758;2023-07-29T04:09:52;23.72;58.29
75985;DHT22;65033;44.660;37.758;2023-07-29T04:10:55;23.73;57.97
75985;DHT22;65033;44.660;37.758;2023-07-29T04:11:59;23.73;58.04
75985;DHT22;65033;44.660;37.758;2023-07-29T04:13:03;23.74;58.00
75985;DHT22;65033;44.660;37.758;2023-07-29T04:14:07;23.74;58.13
75985;DHT22;65033;44.660;37.758;2023-07-29T04:15:11;23.74;57.74
75985;DHT22;65033;44.660;37.758;2023-07-29T04:16:14;23.79;57.67
75985;DHT22;65033;44.660;37.758;2023-07-29T04:17:19;23.81;57.45
75985;DHT22;65033;44.660;37.758;2023-07-29T04:18:23;23.81;57.63
75985;DHT22;65033;44.660;37.758;2023-07-29T04:19:27;23.80;57.67
75985;DHT22;65033;44.660;37.758;2023-07-29T04:20:30;23.80;57.11
75985;DHT22;65033;44.660;37.758;2023-07-29T04:21:34;23.79;57.92
75985;DHT22;65033;44.660;37.758;2023-07-29T04:22:37;23.91;57.61
75985;DHT22;65033;44.660;37.758;2023-07-29T04:23:40;23.92;57.59
75985;DHT22;65033;44.660;37.758;2023-07-29T04:24:44;23.96;57.20
75985;DHT22;65033;44.660;37.758;2023-07-29T04:25:47;24.00;57.09
75985;DHT22;65033;44.660;37.758;2023-07-29T04:26:51;24.01;57.42
75985;DHT22;65033;44.660;37.758;2023-07-29T04:27:55;24.00;57.45
75985;DHT22;65033;44.660;37.758;2023-07-29T04:29:03;24.03;57.61
75985;DHT22;65033;44.660;37.758;2023-07-29T04:30:09;24.04;57.27
75985;DHT22;65033;44.660;37.758;2023-07-29T04:31:12;24.06;57.05
75985;DHT22;65033;44.660;37.758;2023-07-29T04:32:16;24.12;56.71
75985;DHT22;65033;44.660;37.758;2023-07-29T04:33:19;24.16;56.49
75985;DHT22;65033;44.660;37.758;2023-07-29T04:34:23;24.15;56.39
75985;DHT22;65033;44.660;37.758;2023-07-29T04:35:27;24.15;56.46
75985;DHT22;65033;44.660;37.758;2023-07-29T04:36:30;24.19;56.38
75985;DHT22;65033;44.660;37.758;2023-07-29T04:37:34;24.19;55.67
75985;DHT22;65033;44.660;37.758;2023-07-29T04:38:37;24.15;56.21
75985;DHT22;65033;44.660;37.758;2023-07-29T04:39:41;24.16;56.32
75985;DHT22;65033;44.660;37.758;2023-07-29T04:40:45;24.19;56.46
75985;DHT22;65033;44.660;37.758;2023-07-29T04:41:49;24.26;56.02
75985;DHT22;65033;44.660;37.758;2023-07-29T04:42:53;24.29;55.81
75985;DHT22;65033;44.660;37.758;2023-07-29T04:43:56;24.33;55.80
75985;DHT22;65033;44.660;37.758;2023-07-29T04:45:01;24.34;55.84
75985;DHT22;65033;44.660;37.758;2023-07-29T04:46:09;24.33;56.13
75985;DHT22;65033;44.660;37.758;2023-07-29T04:47:12;24.34;55.05
75985;DHT22;65033;44.660;37.758;2023-07-29T04:48:16;24.33;55.33
75985;DHT22;65033;44.660;37.758;2023-07-29T04:49:19;24.33;55.76
75985;DHT22;65033;44.660;37.758;2023-07-29T04:50:23;24.35;55.71
75985;DHT22;65033;44.660;37.758;2023-07-29T04:51:26;24.38;55.53
75985;DHT22;65033;44.660;37.758;2023-07-29T04:52:30;24.45;55.42
75985;DHT22;65033;44.660;37.758;2023-07-29T04:53:33;24.49;55.16
75985;DHT22;65033;44.660;37.758;2023-07-29T04:54:39;24.51;55.52
75985;DHT22;65033;44.660;37.758;2023-07-29T04:55:43;24.58;54.88
75985;DHT22;65033;44.660;37.758;2023-07-29T04:56:47;24.56;54.85
75985;DHT22;65033;44.660;37.758;2023-07-29T04:57:52;24.59;54.99
75985;DHT22;65033;44.660;37.758;2023-07-29T04:58:56;24.62;54.78
75985;DHT22;65033;44.660;37.758;2023-07-29T04:59:59;24.64;54.09
75985;DHT22;65033;44.660;37.758;2023-07-29T05:01:04;24.71;54.00
75985;DHT22;65033;44.660;37.758;2023-07-29T05:02:10;24.70;54.03
75985;DHT22;65033;44.660;37.758;2023-07-29T05:03:14;24.73;53.75
75985;DHT22;65033;44.660;37.758;2023-07-29T05:04:18;24.74;54.18
75985;DHT22;65033;44.660;37.758;2023-07-29T05:05:22;24.69;53.77
75985;DHT22;65033;44.660;37.758;2023-07-29T05:06:25;24.68;53.84
75985;DHT22;65033;44.660;37.758;2023-07-29T05:07:29;24.68;53.88
75985;DHT22;65033;44.660;37.758;2023-07-29T05:08:35;24.66;54.00
75985;DHT22;65033;44.660;37.758;2023-07-29T05:09:38;24.70;53.83
75985;DHT22;65033;44.660;37.758;2023-07-29T05:10:42;24.63;53.84
75985;DHT22;65033;44.660;37.758;2023-07-29T05:11:46;24.68;54.13
75985;DHT22;65033;44.660;37.758;2023-07-29T05:12:50;24.72;53.01
75985;DHT22;65033;44.660;37.758;2023-07-29T05:13:53;24.76;53.68
75985;DHT22;65033;44.660;37.758;2023-07-29T05:14:57;24.80;53.87
75985;DHT22;65033;44.660;37.758;2023-07-29T05:16:00;24.90;54.16
75985;DHT22;65033;44.660;37.758;2023-07-29T05:17:05;24.94;51.50
75985;DHT22;65033;44.660;37.758;2023-07-29T05:18:11;24.89;51.69
75985;DHT22;65033;44.660;37.758;2023-07-29T05:19:14;24.88;52.56
75985;DHT22;65033;44.660;37.758;2023-07-29T05:20:18;24.86;52.94
75985;DHT22;65033;44.660;37.758;2023-07-29T05:21:22;24.85;52.65
75985;DHT22;65033;44.660;37.758;2023-07-29T05:22:25;24.87;52.66
75985;DHT22;65033;44.660;37.758;2023-07-29T05:23:29;24.86;51.09
75985;DHT22;65033;44.660;37.758;2023-07-29T05:24:32;24.85;51.72
75985;DHT22;65033;44.660;37.758;2023-07-29T05:25:36;24.88;51.47
75985;DHT22;65033;44.660;37.758;2023-07-29T05:26:40;24.93;50.66
75985;DHT22;65033;44.660;37.758;2023-07-29T05:27:43;24.98;51.04
75985;DHT22;65033;44.660;37.758;2023-07-29T05:28:47;25.00;51.33
75985;DHT22;65033;44.660;37.758;2023-07-29T05:29:53;25.06;51.50
75985;DHT22;65033;44.660;37.758;2023-07-29T05:30:56;25.12;51.16
75985;DHT22;65033;44.660;37.758;2023-07-29T05:32:00;25.18;51.12
75985;DHT22;65033;44.660;37.758;2023-07-29T05:33:04;25.19;51.13
75985;DHT22;65033;44.660;37.758;2023-07-29T05:34:09;25.17;50.94
75985;DHT22;65033;44.660;37.758;2023-07-29T05:35:15;25.17;51.11
75985;DHT22;65033;44.660;37.758;2023-07-29T05:36:19;25.19;50.88
75985;DHT22;65033;44.660;37.758;2023-07-29T05:37:23;25.27;51.29
75985;DHT22;65033;44.660;37.758;2023-07-29T05:38:26;25.33;51.30
75985;DHT22;65033;44.660;37.758;2023-07-29T05:39:30;25.33;52.10
75985;DHT22;65033;44.660;37.758;2023-07-29T05:40:35;25.33;51.66
75985;DHT22;65033;44.660;37.758;2023-07-29T05:41:39;25.35;51.52
75985;DHT22;65033;44.660;37.758;2023-07-29T05:42:44;25.40;50.95
75985;DHT22;65033;44.660;37.758;2023-07-29T05:43:48;25.35;50.58
75985;DHT22;65033;44.660;37.758;2023-07-29T05:44:52;25.38;49.47
75985;DHT22;65033;44.660;37.758;2023-07-29T05:45:55;25.39;50.30
75985;DHT22;65033;44.660;37.758;2023-07-29T05:46:59;25.44;49.87
75985;DHT22;65033;44.660;37.758;2023-07-29T05:48:04;25.47;50.46
75985;DHT22;65033;44.660;37.758;2023-07-29T05:49:09;25.50;50.12
75985;DHT22;65033;44.660;37.758;2023-07-29T05:50:13;25.52;50.37
75985;DHT22;65033;44.660;37.758;2023-07-29T05:51:16;25.61;50.53
75985;DHT22;65033;44.660;37.758;2023-07-29T05:52:20;25.60;49.47
75985;DHT22;65033;44.660;37.758;2023-07-29T05:53:24;25.61;49.76
75985;DHT22;65033;44.660;37.758;2023-07-29T05:54:27;25.67;49.98
75985;DHT22;65033;44.660;37.758;2023-07-29T05:55:31;25.67;49.06
75985;DHT22;65033;44.660;37.758;2023-07-29T05:56:35;25.73;47.47
75985;DHT22;65033;44.660;37.758;2023-07-29T05:57:39;25.71;49.31
75985;DHT22;65033;44.660;37.758;2023-07-29T05:58:47;25.72;49.88
75985;DHT22;65033;44.660;37.758;2023-07-29T05:59:50;25.74;49.62
75985;DHT22;65033;44.660;37.758;2023-07-29T06:00:55;25.77;50.08
75985;DHT22;65033;44.660;37.758;2023-07-29T06:02:00;25.74;49.66
75985;DHT22;65033;44.660;37.758;2023-07-29T06:03:04;25.73;49.87
75985;DHT22;65033;44.660;37.758;2023-07-29T06:04:11;25.76;50.02
75985;DHT22;65033;44.660;37.758;2023-07-29T06:05:15;25.84;49.92
75985;DHT22;65033;44.660;37.758;2023-07-29T06:06:18;25.98;49.31
75985;DHT22;65033;44.660;37.758;2023-07-29T06:07:22;26.08;48.75
75985;DHT22;65033;44.660;37.758;2023-07-29T06:08:26;26.07;48.62
75985;DHT22;65033;44.660;37.758;2023-07-29T06:09:31;26.08;48.82
75985;DHT22;65033;44.660;37.758;2023-07-29T06:10:35;26.04;46.83
75985;DHT22;65033;44.660;37.758;2023-07-29T06:11:39;25.99;47.68
75985;DHT22;65033;44.660;37.758;2023-07-29T06:12:43;25.99;48.36
75985;DHT22;65033;44.660;37.758;2023-07-29T06:13:47;25.98;49.05
75985;DHT22;65033;44.660;37.758;2023-07-29T06:14:52;25.94;49.31
75985;DHT22;65033;44.660;37.758;2023-07-29T06:15:55;25.88;48.44
75985;DHT22;65033;44.660;37.758;2023-07-29T06:16:59;25.83;47.60
75985;DHT22;65033;44.660;37.758;2023-07-29T06:18:02;25.79;47.72
75985;DHT22;65033;44.660;37.758;2023-07-29T06:19:07;25.75;47.59
75985;DHT22;65033;44.660;37.758;2023-07-29T06:20:17;25.84;48.34
75985;DHT22;65033;44.660;37.758;2023-07-29T06:21:21;25.88;48.42
75985;DHT22;65033;44.660;37.758;2023-07-29T06:22:25;25.95;48.66
75985;DHT22;65033;44.660;37.758;2023-07-29T06:23:29;26.05;49.37
75985;DHT22;65033;44.660;37.758;2023-07-29T06:24:32;26.08;49.16
75985;DHT22;65033;44.660;37.758;2023-07-29T06:25:36;26.15;48.12
75985;DHT22;65033;44.660;37.758;2023-07-29T06:26:40;26.12;48.71
75985;DHT22;65033;44.660;37.758;2023-07-29T06:27:44;26.08;48.28
75985;DHT22;65033;44.660;37.758;2023-07-29T06:28:48;26.07;48.76
75985;DHT22;65033;44.660;37.758;2023-07-29T06:29:51;26.01;48.58
75985;DHT22;65033;44.660;37.758;2023-07-29T06:30:55;25.98;48.55
75985;DHT22;65033;44.660;37.758;2023-07-29T06:32:00;25.96;47.79
75985;DHT22;65033;44.660;37.758;2023-07-29T06:33:03;25.94;48.07
75985;DHT22;65033;44.660;37.758;2023-07-29T06:34:07;25.98;49.98
75985;DHT22;65033;44.660;37.758;2023-07-29T06:35:11;26.03;49.71
75985;DHT22;65033;44.660;37.758;2023-07-29T06:36:19;26.10;48.34
75985;DHT22;65033;44.660;37.758;2023-07-29T06:37:23;26.12;47.45
75985;DHT22;65033;44.660;37.758;2023-07-29T06:38:27;26.11;46.09
75985;DHT22;65033;44.660;37.758;2023-07-29T06:39:31;26.06;45.02
75985;DHT22;65033;44.660;37.758;2023-07-29T06:40:34;26.03;46.44
75985;DHT22;65033;44.660;37.758;2023-07-29T06:41:40;26.01;47.75